Time;durP1;ratioP1;P1;durP2;ratioP2;P2;SDS_P1;SDS_P2;PMS_P1;PMS_P2;Temp;Humidity;BMP_temperature;BMP_pressure;BME280_temperature;BME280_humidity;BME280_pressure;Samples;Min_cycle;Max_cycle;Signal;HPM_P1;HPM_P2
2021/10/16 00:01:42;;;;;;;7.28;4.83;;;;;;;9.02;70.89;97314.44;1729315;81;25843;-83
2021/10/16 00:04:09;;;;;;;6.10;4.15;;;;;;;9.00;71.16;97315.16;1745880;79;28185;-84
2021/10/16 00:06:36;;;;;;;7.97;4.47;;;;;;;8.92;71.23;97315.34;1761930;80;25712;-84
2021/10/16 00:09:03;;;;;;;5.95;4.55;;;;;;;8.90;71.48;97312.02;1762141;80;25326;-84
2021/10/16 00:11:29;;;;;;;6.97;5.00;;;;;;;8.88;71.45;97314.09;1762069;80;25767;-83
2021/10/16 00:13:56;;;;;;;5.75;4.20;;;;;;;8.88;71.57;97323.51;1762040;80;25820;-83
2021/10/16 00:16:23;;;;;;;5.37;4.00;;;;;;;8.85;71.61;97322.55;1762036;80;28472;-83
2021/10/16 00:18:50;;;;;;;5.22;3.80;;;;;;;8.84;71.76;97324.93;1759096;79;25867;-85
2021/10/16 00:21:16;;;;;;;5.92;3.98;;;;;;;8.86;71.73;97320.18;1756335;80;25827;-83
2021/10/16 00:23:43;;;;;;;4.95;4.05;;;;;;;8.89;71.71;97321.64;1756280;80;26664;-83
2021/10/16 00:26:09;;;;;;;6.15;4.00;;;;;;;8.89;71.66;97322.99;1756462;80;25854;-84
2021/10/16 00:28:37;;;;;;;5.20;3.80;;;;;;;8.93;71.75;97321.05;1756389;80;27540;-83
2021/10/16 00:31:04;;;;;;;5.60;3.70;;;;;;;8.92;72.03;97315.34;1756167;80;25835;-85
2021/10/16 00:33:31;;;;;;;6.45;3.58;;;;;;;8.89;71.76;97314.40;1777727;79;25687;-84
2021/10/16 00:35:58;;;;;;;4.25;3.30;;;;;;;8.92;71.73;97319.39;1777801;79;26211;-84
2021/10/16 00:38:25;;;;;;;4.78;3.65;;;;;;;8.91;71.79;97318.23;1777528;79;25747;-84
2021/10/16 00:40:51;;;;;;;3.87;3.45;;;;;;;8.92;71.69;97319.39;1777767;80;27434;-84
2021/10/16 00:43:18;;;;;;;4.62;3.83;;;;;;;8.96;71.70;97321.13;1777805;79;25798;-84
2021/10/16 00:45:44;;;;;;;4.65;3.92;;;;;;;9.01;71.70;97320.85;1777439;79;25739;-83
2021/10/16 00:48:11;;;;;;;6.65;4.00;;;;;;;9.05;71.65;97323.14;1777806;79;25834;-84
2021/10/16 00:50:38;;;;;;;5.22;3.92;;;;;;;9.03;71.61;97321.48;1777828;80;25762;-84
2021/10/16 00:53:04;;;;;;;4.87;3.45;;;;;;;9.06;71.55;97327.50;1777736;79;28787;-84
2021/10/16 00:55:31;;;;;;;5.15;3.42;;;;;;;9.09;71.52;97325.20;1777683;79;25868;-83
2021/10/16 00:58:02;;;;;;;5.17;4.17;;;;;;;9.08;71.41;97320.02;1777736;79;25707;-84
2021/10/16 01:00:28;;;;;;;5.35;3.67;;;;;;;9.08;71.34;97321.37;1777737;79;25767;-84
2021/10/16 01:02:56;;;;;;;4.10;3.30;;;;;;;9.09;71.34;97318.99;1783751;79;25714;-84
2021/10/16 01:05:22;;;;;;;6.03;3.55;;;;;;;9.11;71.38;97316.93;1787231;78;27550;-85
2021/10/16 01:07:49;;;;;;;4.12;3.50;;;;;;;9.12;71.36;97311.86;1786914;78;26064;-84
2021/10/16 01:10:16;;;;;;;5.72;3.35;;;;;;;9.13;71.34;97313.52;1786919;78;25721;-84
2021/10/16 01:12:43;;;;;;;3.72;3.20;;;;;;;9.10;71.36;97310.72;1786951;78;25711;-84
2021/10/16 01:15:13;;;;;;;4.25;3.30;;;;;;;9.12;71.36;97317.25;1786988;80;25649;-84
2021/10/16 01:17:44;;;;;;;5.67;3.50;;;;;;;9.13;71.37;97319.73;1795874;78;27635;-84
2021/10/16 01:20:18;;;;;;;5.60;3.65;;;;;;;9.10;71.38;97313.92;1799891;78;25866;-84
2021/10/16 01:22:45;;;;;;;5.60;3.80;;;;;;;9.02;71.61;97314.44;1787000;80;25708;-84
2021/10/16 01:25:14;;;;;;;6.37;3.67;;;;;;;8.97;71.80;97319.59;1786992;80;25691;-86
2021/10/16 01:27:41;;;;;;;4.35;3.15;;;;;;;8.95;71.86;97323.00;1787134;78;26274;-91
2021/10/16 01:30:12;;;;;;;4.75;3.05;;;;;;;8.95;71.62;97327.03;1787261;78;27474;-85
2021/10/16 01:32:40;;;;;;;4.40;3.40;;;;;;;8.93;71.59;97330.98;1786706;78;25955;-84
2021/10/16 01:35:09;;;;;;;4.25;3.22;;;;;;;8.90;71.59;97328.17;1771022;80;25764;-85
2021/10/16 01:37:40;;;;;;;6.20;3.02;;;;;;;8.92;71.57;97327.98;1770965;79;26379;-84
2021/10/16 01:40:09;;;;;;;4.85;3.33;;;;;;;8.94;71.57;97328.06;1787345;78;25824;-84
2021/10/16 01:42:37;;;;;;;4.03;2.90;;;;;;;8.89;71.63;97325.17;1787155;78;27437;-85
2021/10/16 01:45:05;;;;;;;6.03;3.25;;;;;;;8.84;71.69;97328.97;1787062;78;25281;-84
2021/10/16 01:47:31;;;;;;;4.50;3.47;;;;;;;8.80;71.89;97330.42;1787141;78;26351;-84
2021/10/16 01:49:58;;;;;;;4.08;3.50;;;;;;;8.79;72.07;97327.42;1786846;80;26264;-85
2021/10/16 01:52:25;;;;;;;5.78;3.50;;;;;;;8.78;72.19;97324.41;1787209;80;25726;-85
2021/10/16 01:54:51;;;;;;;5.50;2.98;;;;;;;8.80;72.14;97322.87;1741529;80;27414;-85
2021/10/16 01:57:18;;;;;;;4.62;3.47;;;;;;;8.80;72.12;97327.73;1760293;80;25797;-85
2021/10/16 01:59:44;;;;;;;4.60;3.70;;;;;;;8.84;72.07;97328.97;1771235;79;25745;-84
2021/10/16 02:02:11;;;;;;;4.58;3.62;;;;;;;8.84;72.00;97333.01;1764845;80;25866;-85
2021/10/16 02:04:38;;;;;;;6.60;3.83;;;;;;;8.85;71.97;97336.02;1741888;81;25785;-85
2021/10/16 02:07:04;;;;;;;7.12;3.85;;;;;;;8.88;71.91;97342.34;1741879;81;27581;-85
2021/10/16 02:09:31;;;;;;;4.50;3.50;;;;;;;8.89;71.97;97341.32;1741877;81;25734;-85
2021/10/16 02:11:57;;;;;;;4.40;3.80;;;;;;;8.92;71.95;97344.96;1741889;81;25845;-86
2021/10/16 02:14:24;;;;;;;5.90;4.20;;;;;;;8.93;71.94;97341.23;1741925;81;26258;-84
2021/10/16 02:16:50;;;;;;;10.23;4.58;;;;;;;8.97;71.95;97347.02;1733267;81;25878;-86
2021/10/16 02:19:17;;;;;;;9.30;4.97;;;;;;;8.96;71.98;97346.20;1712367;81;28151;-85
2021/10/16 02:21:44;;;;;;;6.85;4.47;;;;;;;8.98;72.05;97350.03;1723390;81;25982;-85
2021/10/16 02:24:10;;;;;;;6.47;5.10;;;;;;;8.91;72.12;97352.72;1742079;81;25733;-85
2021/10/16 02:26:37;;;;;;;7.22;4.75;;;;;;;8.88;72.22;97351.77;1742005;81;26407;-84
2021/10/16 02:29:03;;;;;;;7.67;4.40;;;;;;;8.90;72.29;97348.87;1742026;81;26382;-85
2021/10/16 02:31:30;;;;;;;5.62;4.90;;;;;;;8.88;72.42;97351.77;1742022;81;28090;-84
2021/10/16 02:33:56;;;;;;;6.47;5.12;;;;;;;8.83;72.51;97354.22;1741897;81;25783;-85
2021/10/16 02:36:23;;;;;;;6.50;4.85;;;;;;;8.80;72.67;97354.65;1742047;81;25857;-84
2021/10/16 02:38:50;;;;;;;6.03;5.35;;;;;;;8.78;72.88;97354.02;1742180;81;25827;-84
2021/10/16 02:41:17;;;;;;;8.63;5.90;;;;;;;8.72;73.03;97356.15;1742147;81;25759;-85
2021/10/16 02:43:43;;;;;;;8.43;6.12;;;;;;;8.73;73.19;97359.67;1742023;81;28431;-84
2021/10/16 02:46:10;;;;;;;8.25;5.97;;;;;;;8.69;73.33;97358.44;1741955;81;25883;-85
2021/10/16 02:48:37;;;;;;;11.33;5.70;;;;;;;8.65;73.51;97359.34;1742013;81;25818;-85
2021/10/16 02:51:03;;;;;;;8.18;5.53;;;;;;;8.58;73.44;97357.95;1742025;81;26522;-84
2021/10/16 02:53:30;;;;;;;7.35;5.78;;;;;;;8.54;73.43;97358.56;1741755;81;25688;-85
2021/10/16 02:55:56;;;;;;;9.08;5.65;;;;;;;8.51;73.48;97361.65;1741992;81;27537;-84
2021/10/16 02:58:23;;;;;;;6.30;5.10;;;;;;;8.53;73.43;97367.66;1732807;81;25708;-84
2021/10/16 03:00:49;;;;;;;7.47;4.67;;;;;;;8.53;73.30;97369.84;1730522;81;25793;-85
2021/10/16 03:03:16;;;;;;;8.90;4.50;;;;;;;8.54;73.28;97374.70;1741588;81;25816;-85
2021/10/16 03:05:42;;;;;;;6.37;4.72;;;;;;;8.51;73.20;97377.79;1742137;81;25286;-85
2021/10/16 03:08:09;;;;;;;5.97;4.65;;;;;;;8.43;73.01;97368.55;1741485;81;27572;-85
2021/10/16 03:10:36;;;;;;;5.65;4.67;;;;;;;8.40;73.14;97374.31;1742075;81;25865;-84
2021/10/16 03:13:03;;;;;;;10.05;5.25;;;;;;;8.39;73.12;97375.34;1726453;81;25757;-85
2021/10/16 03:15:29;;;;;;;7.03;4.17;;;;;;;8.43;73.07;97383.34;1741965;81;25775;-84
2021/10/16 03:17:56;;;;;;;6.85;5.20;;;;;;;8.42;73.06;97386.55;1742098;81;25267;-84
2021/10/16 03:20:22;;;;;;;5.15;4.65;;;;;;;8.36;72.75;97391.87;1741941;81;27438;-84
2021/10/16 03:22:49;;;;;;;6.37;4.85;;;;;;;8.36;72.95;97390.52;1741947;81;25751;-84
2021/10/16 03:25:15;;;;;;;6.78;5.20;;;;;;;8.30;73.06;97390.78;1742056;81;25688;-84
2021/10/16 03:27:42;;;;;;;7.20;5.47;;;;;;;8.25;73.18;97390.02;1741911;81;26326;-84
2021/10/16 03:30:09;;;;;;;5.90;4.67;;;;;;;8.20;73.24;97395.17;1742145;81;25750;-84
2021/10/16 03:32:36;;;;;;;7.87;5.12;;;;;;;8.18;73.41;97399.91;1724806;82;27365;-84
2021/10/16 03:35:03;;;;;;;8.00;5.72;;;;;;;8.14;73.57;97398.62;1738257;81;25854;-84
2021/10/16 03:37:29;;;;;;;7.95;5.35;;;;;;;8.10;73.65;97397.35;1787028;80;26451;-84
2021/10/16 03:39:56;;;;;;;5.72;5.12;;;;;;;8.10;73.81;97396.00;1787130;80;25761;-84
2021/10/16 03:42:23;;;;;;;8.83;5.60;;;;;;;8.09;73.87;97398.38;1787407;78;25715;-84
2021/10/16 03:44:49;;;;;;;7.62;6.17;;;;;;;8.08;73.90;97399.94;1787263;78;27398;-84
2021/10/16 03:47:16;;;;;;;7.58;5.47;;;;;;;8.06;73.97;97409.55;1754862;80;25291;-84
2021/10/16 03:49:42;;;;;;;7.72;5.83;;;;;;;8.04;74.02;97410.76;1787124;78;26185;-84
2021/10/16 03:52:09;;;;;;;5.33;4.83;;;;;;;8.01;74.15;97419.20;1786983;78;25739;-84
2021/10/16 03:54:36;;;;;;;6.80;5.28;;;;;;;8.00;74.23;97422.41;1787266;80;25751;-84
2021/10/16 03:57:03;;;;;;;6.60;5.28;;;;;;;7.96;74.27;97417.12;1787252;78;27389;-84
2021/10/16 03:59:30;;;;;;;7.95;5.65;;;;;;;7.95;74.36;97420.83;1754080;80;25736;-84
2021/10/16 04:01:58;;;;;;;6.87;5.28;;;;;;;7.98;74.36;97423.11;1787629;78;25749;-84
2021/10/16 04:04:24;;;;;;;6.65;5.60;;;;;;;8.03;74.26;97421.19;1786947;78;25778;-84
2021/10/16 04:06:51;;;;;;;6.03;5.42;;;;;;;8.10;74.09;97421.55;1787157;78;25767;-85
2021/10/16 04:09:17;;;;;;;9.25;5.75;;;;;;;8.14;73.91;97418.80;1777210;80;27478;-84
2021/10/16 04:11:44;;;;;;;7.22;5.33;;;;;;;8.16;73.78;97422.13;1775713;78;26258;-85
2021/10/16 04:14:11;;;;;;;7.30;5.70;;;;;;;8.18;73.71;97425.45;1787230;78;26320;-89
2021/10/16 04:16:37;;;;;;;7.45;5.78;;;;;;;8.17;73.63;97420.27;1787252;80;25903;-87
2021/10/16 04:19:04;;;;;;;9.30;6.30;;;;;;;8.12;73.58;97422.19;1787285;80;25426;-85
2021/10/16 04:21:30;;;;;;;7.95;5.83;;;;;;;8.13;73.67;97431.09;1787251;78;27459;-89
2021/10/16 04:23:57;;;;;;;7.40;6.05;;;;;;;8.13;73.78;97417.13;1787128;78;25809;-87
2021/10/16 04:26:23;;;;;;;8.00;5.85;;;;;;;8.14;73.66;97422.00;1775756;78;25729;-89
2021/10/16 04:28:50;;;;;;;9.28;5.67;;;;;;;8.15;73.65;97426.35;1776860;78;26684;-90
2021/10/16 04:31:17;;;;;;;6.50;5.03;;;;;;;8.14;73.64;97422.83;1787250;78;25744;-85
2021/10/16 04:33:43;;;;;;;9.43;5.62;;;;;;;8.16;73.67;97427.50;1784099;78;28021;-88
2021/10/16 04:36:10;;;;;;;8.48;5.17;;;;;;;8.16;73.57;97423.47;1768757;78;25705;-86
2021/10/16 04:38:36;;;;;;;6.67;5.05;;;;;;;8.14;73.44;97428.72;1786901;78;25311;-86
2021/10/16 04:41:03;;;;;;;7.40;4.92;;;;;;;8.09;73.49;97427.95;1766001;78;25814;-85
2021/10/16 04:43:30;;;;;;;7.85;4.55;;;;;;;8.08;73.47;97433.03;1787267;78;25271;-86
2021/10/16 04:45:57;;;;;;;5.87;4.28;;;;;;;8.03;73.43;97434.13;1787185;78;27429;-85
2021/10/16 04:48:24;;;;;;;7.05;4.87;;;;;;;7.99;73.42;97439.55;1787163;78;25738;-85
2021/10/16 04:50:52;;;;;;;7.00;4.17;;;;;;;7.99;73.45;97443.59;1787196;80;25753;-85
2021/10/16 04:53:19;;;;;;;5.87;4.20;;;;;;;7.92;73.49;97450.77;1786856;78;26252;-85
2021/10/16 04:55:47;;;;;;;7.20;4.20;;;;;;;7.89;73.61;97449.81;1765242;78;25703;-85
2021/10/16 04:58:13;;;;;;;4.50;4.10;;;;;;;7.86;73.68;97454.22;1787155;78;28170;-85
2021/10/16 05:00:40;;;;;;;8.30;4.15;;;;;;;7.85;73.80;97452.55;1787137;78;26528;-85
2021/10/16 05:03:07;;;;;;;7.40;4.22;;;;;;;7.83;73.79;97455.46;1787114;78;25786;-85
2021/10/16 05:05:36;;;;;;;6.87;4.08;;;;;;;7.82;73.66;97457.00;1770435;78;25734;-85
2021/10/16 05:08:03;;;;;;;8.68;6.35;;;;;;;7.82;73.69;97462.37;1724867;81;25733;-85
2021/10/16 05:10:29;;;;;;;11.55;6.95;;;;;;;7.82;73.83;97462.37;1724749;81;28493;-85
2021/10/16 05:12:56;;;;;;;14.70;8.93;;;;;;;7.84;73.69;97467.88;1786985;78;25853;-85
2021/10/16 05:15:23;;;;;;;11.63;8.40;;;;;;;7.86;73.62;97468.48;1786736;80;25769;-85
2021/10/16 05:17:49;;;;;;;12.53;7.33;;;;;;;7.90;73.58;97471.63;1787178;80;25721;-86
2021/10/16 05:20:16;;;;;;;7.50;6.17;;;;;;;7.92;73.58;97466.91;1787034;80;25786;-84
2021/10/16 05:22:42;;;;;;;5.72;4.17;;;;;;;7.95;73.55;97471.39;1754475;80;28123;-85
2021/10/16 05:25:10;;;;;;;7.10;4.15;;;;;;;7.96;73.43;97476.25;1786965;78;25887;-85
2021/10/16 05:27:38;;;;;;;7.60;4.28;;;;;;;7.97;73.35;97477.09;1782731;80;27347;-85
2021/10/16 05:30:07;;;;;;;6.67;4.10;;;;;;;7.95;73.32;97471.90;1768071;78;26107;-85
2021/10/16 05:32:33;;;;;;;6.03;4.85;;;;;;;7.92;73.35;97473.62;1725448;81;26564;-85
2021/10/16 05:35:00;;;;;;;8.00;5.33;;;;;;;7.84;73.36;97485.86;1768406;78;28230;-85
2021/10/16 05:37:27;;;;;;;7.10;5.25;;;;;;;7.82;73.59;97491.93;1788838;78;25752;-85
2021/10/16 05:39:53;;;;;;;8.98;5.22;;;;;;;7.79;73.72;97490.96;1787168;78;25663;-85
2021/10/16 05:42:20;;;;;;;10.08;5.33;;;;;;;7.74;73.81;97488.00;1787259;78;25846;-85
2021/10/16 05:44:46;;;;;;;10.88;5.83;;;;;;;7.71;73.87;97493.78;1754976;80;25309;-85
2021/10/16 05:47:15;;;;;;;9.45;5.78;;;;;;;7.68;73.92;97496.34;1787103;78;27598;-85
2021/10/16 05:49:41;;;;;;;10.03;6.05;;;;;;;7.66;74.02;97506.94;1754864;80;25805;-85
2021/10/16 05:52:08;;;;;;;8.15;6.45;;;;;;;7.66;74.13;97510.97;1787171;78;25654;-85
2021/10/16 05:54:34;;;;;;;8.50;6.33;;;;;;;7.66;74.23;97508.29;1785273;78;26361;-85
2021/10/16 05:57:01;;;;;;;8.90;5.90;;;;;;;7.64;74.32;97517.05;1767741;78;25766;-85
2021/10/16 05:59:28;;;;;;;7.62;6.05;;;;;;;7.64;74.49;97521.08;1766017;78;27657;-86
2021/10/16 06:01:54;;;;;;;8.03;6.35;;;;;;;7.65;74.55;97522.73;1754480;80;25819;-85
2021/10/16 06:04:21;;;;;;;11.60;6.33;;;;;;;7.70;74.64;97525.20;1787081;80;25816;-85
2021/10/16 06:06:47;;;;;;;11.25;6.45;;;;;;;7.70;74.70;97524.36;1787120;78;25839;-85
2021/10/16 06:09:15;;;;;;;11.70;7.12;;;;;;;7.73;74.73;97532.05;1787440;80;25939;-85
2021/10/16 06:11:42;;;;;;;11.25;8.05;;;;;;;7.79;74.76;97533.95;1789098;78;27497;-85
2021/10/16 06:14:08;;;;;;;11.75;7.85;;;;;;;7.81;74.71;97540.81;1787144;80;25976;-85
2021/10/16 06:16:35;;;;;;;12.88;8.63;;;;;;;7.81;74.78;97538.13;1787318;78;25691;-86
2021/10/16 06:19:04;;;;;;;14.45;8.10;;;;;;;7.84;74.81;97540.95;1789060;78;25785;-85
2021/10/16 06:21:30;;;;;;;8.75;6.35;;;;;;;7.91;74.81;97540.49;1771329;79;26205;-85
2021/10/16 06:23:57;;;;;;;15.58;8.18;;;;;;;7.98;74.72;97540.03;1763237;80;28481;-85
2021/10/16 06:26:24;;;;;;;11.60;6.92;;;;;;;8.03;74.45;97549.72;1735616;81;25997;-85
2021/10/16 06:28:50;;;;;;;8.98;6.25;;;;;;;8.07;74.26;97555.04;1752971;81;25756;-85
2021/10/16 06:31:17;;;;;;;11.33;6.15;;;;;;;8.12;74.07;97553.09;1756019;80;25757;-85
2021/10/16 06:33:43;;;;;;;5.83;4.70;;;;;;;8.16;73.95;97552.53;1770026;80;25917;-86
2021/10/16 06:36:10;;;;;;;11.75;5.15;;;;;;;8.19;73.78;97554.84;1771328;79;28152;-84
2021/10/16 06:38:36;;;;;;;9.38;5.72;;;;;;;8.22;73.62;97557.13;1770905;80;25959;-84
2021/10/16 06:41:03;;;;;;;11.35;5.53;;;;;;;8.21;73.61;97558.15;1749820;80;25830;-84
2021/10/16 06:43:30;;;;;;;7.70;4.90;;;;;;;8.22;73.59;97558.98;1749755;80;25789;-85
2021/10/16 06:45:56;;;;;;;9.43;5.55;;;;;;;8.23;73.54;97555.27;1771438;79;25803;-85
2021/10/16 06:48:23;;;;;;;10.88;4.95;;;;;;;8.27;73.49;97561.42;1771068;80;27532;-85
2021/10/16 06:50:49;;;;;;;7.85;4.90;;;;;;;8.32;73.51;97562.23;1771297;79;25848;-84
2021/10/16 06:53:16;;;;;;;8.60;5.08;;;;;;;8.35;73.43;97569.06;1770964;80;25704;-84
2021/10/16 06:55:42;;;;;;;9.60;5.83;;;;;;;8.42;73.33;97572.66;1771431;79;25764;-84
2021/10/16 06:58:09;;;;;;;9.88;6.30;;;;;;;8.47;73.17;97579.62;1770869;80;25881;-85
2021/10/16 07:00:37;;;;;;;8.00;5.10;;;;;;;8.52;73.29;97580.72;1771008;79;27429;-85
2021/10/16 07:03:07;;;;;;;13.45;5.33;;;;;;;8.60;73.13;97583.77;1770920;80;26098;-85
2021/10/16 07:05:33;;;;;;;9.25;4.62;;;;;;;8.68;72.87;97578.78;1762662;80;25727;-84
2021/10/16 07:08:00;;;;;;;12.05;5.05;;;;;;;8.71;72.65;97573.81;1762474;81;25886;-87
2021/10/16 07:10:27;;;;;;;12.13;4.87;;;;;;;8.73;72.58;97572.28;1762472;80;25667;-86
2021/10/16 07:12:53;;;;;;;7.42;3.58;;;;;;;8.85;72.75;97568.85;1762626;80;27433;-88
2021/10/16 07:15:20;;;;;;;5.33;3.35;;;;;;;9.01;72.51;97572.59;1762495;80;25932;-85
2021/10/16 07:17:47;;;;;;;6.80;3.20;;;;;;;9.12;71.98;97571.21;1762454;81;26482;-85
2021/10/16 07:20:13;;;;;;;10.90;3.42;;;;;;;9.23;71.72;97572.52;1762475;80;26647;-84
2021/10/16 07:22:40;;;;;;;7.55;3.15;;;;;;;9.28;71.37;97571.41;1762594;80;25374;-84
2021/10/16 07:25:08;;;;;;;7.12;2.62;;;;;;;9.25;71.21;97563.72;1762603;80;27977;-84
2021/10/16 07:27:34;;;;;;;8.03;3.15;;;;;;;9.29;71.28;97563.66;1756274;81;26372;-84
2021/10/16 07:30:01;;;;;;;7.00;3.45;;;;;;;9.46;71.26;97568.17;1762080;81;25767;-85
2021/10/16 07:32:28;;;;;;;5.33;2.72;;;;;;;9.43;70.21;97569.39;1762138;81;25713;-86
2021/10/16 07:34:54;;;;;;;5.22;2.80;;;;;;;9.47;70.50;97562.58;1762586;81;25690;-85
2021/10/16 07:37:21;;;;;;;11.48;4.03;;;;;;;9.72;70.56;97565.59;1762719;80;27374;-86
2021/10/16 07:39:48;;;;;;;7.10;3.25;;;;;;;9.98;70.11;97570.23;1762215;80;25796;-85
2021/10/16 07:42:14;;;;;;;7.33;3.75;;;;;;;10.09;69.57;97575.03;1779171;79;25733;-85
2021/10/16 07:44:41;;;;;;;7.60;2.70;;;;;;;10.21;69.17;97572.08;1762005;79;26436;-84
2021/10/16 07:47:08;;;;;;;8.05;3.20;;;;;;;10.28;68.99;97569.37;1756307;80;25668;-89
2021/10/16 07:49:34;;;;;;;6.50;3.08;;;;;;;10.22;68.87;97575.09;1756265;80;28136;-85
2021/10/16 07:52:01;;;;;;;5.67;2.70;;;;;;;10.22;68.81;97571.05;1777737;79;25697;-85
2021/10/16 07:54:28;;;;;;;9.33;3.12;;;;;;;10.44;68.44;97569.83;1777885;79;25651;-85
2021/10/16 07:56:54;;;;;;;7.35;2.92;;;;;;;10.52;68.17;97569.30;1777802;79;25834;-86
2021/10/16 07:59:21;;;;;;;7.47;3.10;;;;;;;10.69;67.96;97574.61;1777846;79;25794;-88
2021/10/16 08:01:47;;;;;;;8.30;3.60;;;;;;;10.78;67.50;97577.41;1777519;80;27421;-86
2021/10/16 08:04:14;;;;;;;5.95;3.17;;;;;;;10.77;67.07;97578.44;1777810;79;25738;-91
2021/10/16 08:06:41;;;;;;;10.15;3.30;;;;;;;10.75;66.97;97581.86;1777581;79;25873;-85
2021/10/16 08:09:07;;;;;;;7.45;3.05;;;;;;;10.77;66.62;97583.84;1755976;80;26527;-85
2021/10/16 08:11:35;;;;;;;7.20;2.90;;;;;;;10.87;66.53;97586.95;1779995;79;25784;-85
2021/10/16 08:14:01;;;;;;;5.42;2.65;;;;;;;10.84;65.96;97581.98;1737024;81;27523;-85
2021/10/16 08:16:28;;;;;;;7.20;3.20;;;;;;;10.77;66.05;97586.54;1741979;79;25796;-85
2021/10/16 08:18:55;;;;;;;10.40;3.30;;;;;;;10.72;65.87;97582.30;1750372;80;25663;-86
2021/10/16 08:21:21;;;;;;;9.20;3.60;;;;;;;10.66;66.19;97589.87;1756248;80;25679;-86
2021/10/16 08:23:48;;;;;;;10.03;3.87;;;;;;;10.64;65.92;97589.23;1756378;80;25315;-86
2021/10/16 08:26:15;;;;;;;8.23;3.70;;;;;;;10.57;65.81;97588.42;1756304;80;27519;-85
2021/10/16 08:28:41;;;;;;;7.33;3.45;;;;;;;10.64;65.74;97586.54;1756212;81;25759;-85
2021/10/16 08:31:08;;;;;;;6.85;3.70;;;;;;;10.68;65.15;97596.73;1756478;80;25842;-85
2021/10/16 08:33:37;;;;;;;10.08;3.77;;;;;;;10.70;65.10;97592.47;1771195;80;26399;-85
2021/10/16 08:36:05;;;;;;;7.95;3.25;;;;;;;10.74;65.06;97593.21;1756441;80;25756;-86
2021/10/16 08:38:32;;;;;;;4.72;3.08;;;;;;;10.74;65.15;97599.13;1727986;81;27396;-86
2021/10/16 08:40:59;;;;;;;8.15;3.55;;;;;;;10.80;64.88;97598.28;1756263;80;25894;-85
2021/10/16 08:43:25;;;;;;;9.90;3.30;;;;;;;11.05;64.46;97596.61;1756419;80;25732;-86
2021/10/16 08:45:53;;;;;;;5.92;3.30;;;;;;;11.18;64.17;97597.11;1756254;80;25808;-85
2021/10/16 08:48:19;;;;;;;8.33;3.35;;;;;;;11.31;64.17;97593.03;1756328;80;25740;-84
2021/10/16 08:50:48;;;;;;;5.85;3.12;;;;;;;11.39;63.75;97598.72;1735137;80;27375;-84
2021/10/16 08:53:15;;;;;;;12.28;5.28;;;;;;;11.38;64.07;97595.19;1756240;80;25872;-88
2021/10/16 08:55:43;;;;;;;8.95;3.47;;;;;;;11.34;63.78;97595.84;1771260;80;25318;-92
2021/10/16 08:58:10;;;;;;;10.90;3.98;;;;;;;11.29;63.33;97605.92;1756331;80;25702;-87
2021/10/16 09:00:53;;;;;;;11.95;4.28;;;;;;;11.23;62.72;97597.84;1756094;81;25867;-84
2021/10/16 09:03:50;;;;;;;7.33;2.85;;;;;;;11.14;62.55;97599.91;1755657;80;28302;-84
2021/10/16 09:06:30;;;;;;;7.97;3.15;;;;;;;11.07;62.20;97603.98;1734377;80;25344;-83
2021/10/16 09:09:04;;;;;;;6.60;4.10;;;;;;;11.16;62.29;97604.59;1756453;80;25796;-83
2021/10/16 09:11:40;;;;;;;10.25;3.42;;;;;;;11.55;62.44;97603.68;1756043;80;26397;-83
2021/10/16 09:14:18;;;;;;;10.35;3.95;;;;;;;11.95;62.02;97595.45;1737187;80;25822;-84
2021/10/16 09:16:50;;;;;;;7.00;3.00;;;;;;;12.17;61.84;97602.20;1756066;80;27418;-83
2021/10/16 09:19:36;;;;;;;7.97;3.37;;;;;;;12.22;60.99;97601.02;1756169;80;25764;-85
2021/10/16 09:22:18;;;;;;;11.50;3.22;;;;;;;12.32;60.75;97602.72;1756540;80;25843;-82
2021/10/16 09:24:46;;;;;;;8.60;4.15;;;;;;;12.38;60.45;97607.80;1755893;80;28151;-82
2021/10/16 09:27:16;;;;;;;6.35;3.12;;;;;;;12.41;60.17;97610.08;1740954;80;26411;-82
2021/10/16 09:29:50;;;;;;;8.08;3.65;;;;;;;12.36;60.22;97611.24;1737480;80;28127;-86
2021/10/16 09:32:20;;;;;;;9.33;3.47;;;;;;;12.25;59.84;97610.06;1730065;80;25780;-84
2021/10/16 09:34:49;;;;;;;8.05;3.50;;;;;;;12.26;59.67;97607.66;1721019;82;25867;-85
2021/10/16 09:37:21;;;;;;;7.53;3.40;;;;;;;12.28;59.41;97609.63;1742220;80;25788;-84
2021/10/16 09:39:55;;;;;;;7.20;2.92;;;;;;;12.30;59.27;97610.77;1756030;81;25669;-83
2021/10/16 09:42:44;;;;;;;8.60;3.60;;;;;;;12.38;59.13;97611.86;1756310;80;27362;-86
2021/10/16 09:45:14;;;;;;;9.28;3.90;;;;;;;12.41;59.07;97604.66;1756261;80;25764;-84
2021/10/16 09:47:56;;;;;;;26.95;17.37;;;;;;;12.46;58.92;97611.06;1756375;80;26094;-84
2021/10/16 09:50:24;;;;;;;8.48;4.55;;;;;;;12.43;58.99;97606.11;1756513;80;25698;-90
2021/10/16 09:52:52;;;;;;;11.22;4.33;;;;;;;12.27;58.64;97610.68;1740493;80;26059;-88
2021/10/16 09:55:20;;;;;;;9.23;3.62;;;;;;;12.15;58.68;97607.00;1751747;80;27485;-83
2021/10/16 09:57:48;;;;;;;8.03;4.28;;;;;;;11.97;58.08;97610.41;1756296;80;25851;-86
2021/10/16 10:00:16;;;;;;;9.53;3.98;;;;;;;11.69;58.58;97608.01;1754225;80;25795;-84
2021/10/16 10:02:55;;;;;;;7.58;3.90;;;;;;;11.57;58.50;97613.77;1758718;80;26532;-83
2021/10/16 10:05:23;;;;;;;7.25;4.17;;;;;;;11.32;58.58;97605.51;1758521;80;25753;-84
2021/10/16 10:07:49;;;;;;;7.65;4.03;;;;;;;11.21;59.27;97600.75;1753063;81;27394;-86
2021/10/16 10:10:16;;;;;;;7.95;4.10;;;;;;;11.25;59.37;97603.33;1732235;81;25775;-83
2021/10/16 10:12:44;;;;;;;11.93;4.05;;;;;;;11.33;59.20;97597.72;1730437;81;25782;-82
2021/10/16 10:15:11;;;;;;;9.30;4.28;;;;;;;11.43;59.29;97600.80;1738987;81;25804;-83
2021/10/16 10:17:38;;;;;;;10.25;5.10;;;;;;;11.59;58.98;97594.11;1738917;81;25768;-83
2021/10/16 10:20:12;;;;;;;9.90;4.53;;;;;;;11.92;58.96;97595.36;1754996;81;27349;-84
2021/10/16 10:22:44;;;;;;;5.17;3.58;;;;;;;12.16;58.57;97593.78;1754893;80;26347;-84
2021/10/16 10:25:23;;;;;;;8.33;4.17;;;;;;;12.22;58.03;97596.44;1753531;80;25689;-89
2021/10/16 10:27:52;;;;;;;9.95;4.70;;;;;;;12.06;58.00;97596.12;1753150;80;25687;-84
2021/10/16 10:30:40;;;;;;;8.35;4.30;;;;;;;11.99;57.85;97595.31;1753214;80;25672;-87
2021/10/16 10:33:23;;;;;;;7.83;4.28;;;;;;;11.85;58.01;97597.24;1753050;80;27407;-86
2021/10/16 10:36:21;;;;;;;7.95;4.70;;;;;;;11.80;57.98;97595.20;1754973;80;26317;-83
2021/10/16 10:38:48;;;;;;;10.32;5.30;;;;;;;11.75;57.84;97596.35;1754954;80;25757;-83
2021/10/16 10:41:30;;;;;;;11.43;5.55;;;;;;;11.60;57.88;97599.80;1753284;80;25892;-84
2021/10/16 10:43:57;;;;;;;10.20;5.47;;;;;;;11.63;58.45;97594.49;1753414;80;31647;-83
2021/10/16 10:46:28;;;;;;;11.93;5.35;;;;;;;11.84;57.98;97594.23;1753135;81;27523;-88
2021/10/16 10:49:08;;;;;;;8.90;5.40;;;;;;;11.90;57.93;97594.73;1753252;80;25832;-84
2021/10/16 10:51:37;;;;;;;11.97;5.35;;;;;;;11.92;57.21;97589.95;1730591;80;25721;-83
2021/10/16 10:54:17;;;;;;;8.65;4.87;;;;;;;11.90;57.23;97583.39;1718206;82;25754;-83
2021/10/16 10:56:50;;;;;;;11.03;5.15;;;;;;;11.88;57.19;97584.65;1738343;81;25796;-83
2021/10/16 10:59:16;;;;;;;8.50;5.50;;;;;;;11.70;56.92;97585.33;1738721;81;27417;-84
2021/10/16 11:02:05;;;;;;;9.65;5.60;;;;;;;11.59;57.27;97586.52;1733349;80;25754;-85
2021/10/16 11:04:38;;;;;;;12.58;6.50;;;;;;;11.63;57.45;97574.22;1752711;81;25802;-84
2021/10/16 11:07:11;;;;;;;12.25;5.90;;;;;;;11.83;57.74;97585.83;1719855;80;25698;-83
2021/10/16 11:09:38;;;;;;;9.40;5.10;;;;;;;11.82;57.47;97581.47;1714146;83;25766;-82
2021/10/16 11:12:07;;;;;;;7.62;5.15;;;;;;;11.71;57.07;97576.70;1697165;83;27425;-84
2021/10/16 11:14:36;;;;;;;8.38;4.87;;;;;;;11.50;56.90;97584.55;1696933;83;25761;-84
2021/10/16 11:17:07;;;;;;;10.75;6.62;;;;;;;11.33;56.64;97576.09;1697019;83;25706;-87
2021/10/16 11:19:51;;;;;;;7.97;5.30;;;;;;;11.28;56.79;97583.16;1710979;83;25776;-85
2021/10/16 11:22:21;;;;;;;8.28;5.00;;;;;;;11.43;56.71;97579.18;1725355;82;25748;-84
2021/10/16 11:24:48;;;;;;;11.22;6.45;;;;;;;11.55;56.75;97579.34;1724847;82;27405;-85
2021/10/16 11:27:22;;;;;;;15.78;6.28;;;;;;;11.65;56.72;97573.48;1696865;83;25796;-89
2021/10/16 11:29:48;;;;;;;11.80;6.35;;;;;;;11.84;56.87;97580.70;1713408;82;25803;-87
2021/10/16 11:32:24;;;;;;;11.20;6.92;;;;;;;11.96;56.88;97578.15;1718363;83;25833;-88
2021/10/16 11:35:04;;;;;;;10.93;6.22;;;;;;;12.04;56.66;97577.40;1725693;83;25693;-87
2021/10/16 11:37:47;;;;;;;8.43;5.97;;;;;;;12.07;56.33;97580.20;1725577;82;27080;-85
2021/10/16 11:40:18;;;;;;;10.35;6.22;;;;;;;12.05;56.22;97579.59;1725736;83;25761;-84
2021/10/16 11:42:52;;;;;;;11.78;7.05;;;;;;;12.02;55.83;97574.59;1725394;83;25808;-85